aviador You're here:

OMFJ Decoded Metar

FUJEIRAH in UNITED ARAB EMIRATES
Report Time2018-05-26 17:00:00
UTC Time2018-05-26 17:24:38
Flight Rules mvfr MVFR
Wind150° at 03 kt
W.Decomp.*RWY 11: 2.3 kt HW 1.9 kt RCW
W.Rank150° ranks 17
Current wind is below 150° avg. (3.6)
Visibility7000 m
Phenomena:N/A
Clouds:N/A
Expected CloudBase > 4,800 ft AGL from Temp-Dew spread
CeilingNone
Temp33°C (ISA +18)
Dew Point21°C (49% RH)
Heat Index36.0°C
QNH1005 hPa
Density Alt2,759 ft
Elevation92 ft
Report Wrong Elevation
Raw Report
METAR OMFJ 261700Z 15003KT 7000 NSC 33/21 Q1005 A2970=

Extra information for OMFJ:More info

Metar Taf Metar & Taf Last 4 Metars F.Rules Stats Wind Profile Meteogram Temp Stats Airport Information Weather charts Add Link Nearby VenuesMetar ALERT Operation Metar Decoded Social comments